Parma, Ohio
Current Conditions -  °F | °C
As of 5:51 AM on Sunday 23 Nov 2014 (Local Time) from KCLE Reporting Station
Light Rain Light Rain  
Wind Chill: 40°   Ceiling: 8000
Heat Index: 45°   Visibility: 9mi
Dew Point: 39°   Wind: 10mph
Humidity: 80%   Direction: 180°S
Pressure: 30.06"   Gusts: NA
Location:  41.38°N, 81.73°W
Report Text: KCLE 231051Z 18009KT 9SM -RA FEW038 SCT065 OVC080 07/04 A3006 RMK AO2 SLP182 P0003 T00720039 $
Loading
Personal Weather Stations






























Interactive Weather Map New forecast layout! Learn more

10-Day Weather Forecast

Advertisements
Track Severe Weather on mobile